sensor_id;sensor_type;location;lat;lon;timestamp;P1;durP1;ratioP1;P2;durP2;ratioP2
66478;SDS011;53294;47.912;13.526;2022-11-23T00:00:04;2.42;;;1.38;;
66478;SDS011;53294;47.912;13.526;2022-11-23T00:02:31;2.50;;;1.50;;
66478;SDS011;53294;47.912;13.526;2022-11-23T00:04:58;2.45;;;1.30;;
66478;SDS011;53294;47.912;13.526;2022-11-23T00:07:24;2.15;;;1.27;;
66478;SDS011;53294;47.912;13.526;2022-11-23T00:09:51;1.92;;;1.30;;
66478;SDS011;53294;47.912;13.526;2022-11-23T00:12:18;1.85;;;1.15;;
66478;SDS011;53294;47.912;13.526;2022-11-23T00:14:44;2.03;;;1.02;;
66478;SDS011;53294;47.912;13.526;2022-11-23T00:17:11;2.30;;;1.20;;
66478;SDS011;53294;47.912;13.526;2022-11-23T00:19:38;1.73;;;1.20;;
66478;SDS011;53294;47.912;13.526;2022-11-23T00:22:04;2.10;;;1.30;;
66478;SDS011;53294;47.912;13.526;2022-11-23T00:24:31;3.67;;;1.73;;
66478;SDS011;53294;47.912;13.526;2022-11-23T00:26:57;2.15;;;1.08;;
66478;SDS011;53294;47.912;13.526;2022-11-23T00:29:24;1.75;;;1.20;;
66478;SDS011;53294;47.912;13.526;2022-11-23T00:31:51;1.10;;;1.00;;
66478;SDS011;53294;47.912;13.526;2022-11-23T00:34:17;1.05;;;0.82;;
66478;SDS011;53294;47.912;13.526;2022-11-23T00:36:44;2.45;;;1.02;;
66478;SDS011;53294;47.912;13.526;2022-11-23T00:39:10;1.67;;;1.00;;
66478;SDS011;53294;47.912;13.526;2022-11-23T00:41:37;1.33;;;0.80;;
66478;SDS011;53294;47.912;13.526;2022-11-23T00:44:04;1.88;;;1.10;;
66478;SDS011;53294;47.912;13.526;2022-11-23T00:46:30;1.65;;;0.82;;
66478;SDS011;53294;47.912;13.526;2022-11-23T00:48:57;4.45;;;1.67;;
66478;SDS011;53294;47.912;13.526;2022-11-23T00:51:30;4.07;;;1.50;;
66478;SDS011;53294;47.912;13.526;2022-11-23T00:53:59;4.60;;;1.63;;
66478;SDS011;53294;47.912;13.526;2022-11-23T00:56:27;3.22;;;1.73;;
66478;SDS011;53294;47.912;13.526;2022-11-23T00:58:55;3.40;;;1.67;;
66478;SDS011;53294;47.912;13.526;2022-11-23T01:01:30;3.95;;;1.67;;
66478;SDS011;53294;47.912;13.526;2022-11-23T01:04:00;2.63;;;1.77;;
66478;SDS011;53294;47.912;13.526;2022-11-23T01:06:29;1.98;;;1.40;;
66478;SDS011;53294;47.912;13.526;2022-11-23T01:08:59;2.42;;;1.23;;
66478;SDS011;53294;47.912;13.526;2022-11-23T01:11:29;1.33;;;1.23;;
66478;SDS011;53294;47.912;13.526;2022-11-23T01:13:57;1.65;;;1.13;;
66478;SDS011;53294;47.912;13.526;2022-11-23T01:16:28;1.70;;;1.27;;
66478;SDS011;53294;47.912;13.526;2022-11-23T01:18:58;1.88;;;1.20;;
66478;SDS011;53294;47.912;13.526;2022-11-23T01:21:27;2.50;;;1.30;;
66478;SDS011;53294;47.912;13.526;2022-11-23T01:23:54;2.55;;;1.60;;
66478;SDS011;53294;47.912;13.526;2022-11-23T01:26:21;2.67;;;1.27;;
66478;SDS011;53294;47.912;13.526;2022-11-23T01:28:48;2.83;;;1.60;;
66478;SDS011;53294;47.912;13.526;2022-11-23T01:31:19;1.77;;;1.30;;
66478;SDS011;53294;47.912;13.526;2022-11-23T01:33:51;4.05;;;1.58;;
66478;SDS011;53294;47.912;13.526;2022-11-23T01:36:20;1.60;;;1.10;;
66478;SDS011;53294;47.912;13.526;2022-11-23T01:38:48;1.73;;;1.17;;
66478;SDS011;53294;47.912;13.526;2022-11-23T01:41:16;3.33;;;1.50;;
66478;SDS011;53294;47.912;13.526;2022-11-23T01:43:45;1.40;;;1.20;;
66478;SDS011;53294;47.912;13.526;2022-11-23T01:46:12;2.60;;;1.60;;
66478;SDS011;53294;47.912;13.526;2022-11-23T01:48:41;2.85;;;1.63;;
66478;SDS011;53294;47.912;13.526;2022-11-23T01:51:20;3.70;;;1.80;;
66478;SDS011;53294;47.912;13.526;2022-11-23T01:53:52;3.65;;;1.42;;
66478;SDS011;53294;47.912;13.526;2022-11-23T01:56:25;3.38;;;1.65;;
66478;SDS011;53294;47.912;13.526;2022-11-23T01:58:56;3.22;;;1.75;;
66478;SDS011;53294;47.912;13.526;2022-11-23T02:01:28;2.38;;;1.35;;
66478;SDS011;53294;47.912;13.526;2022-11-23T02:03:55;1.52;;;1.20;;
66478;SDS011;53294;47.912;13.526;2022-11-23T02:06:24;2.00;;;1.33;;
66478;SDS011;53294;47.912;13.526;2022-11-23T02:08:50;3.13;;;1.27;;
66478;SDS011;53294;47.912;13.526;2022-11-23T02:11:18;1.33;;;1.02;;
66478;SDS011;53294;47.912;13.526;2022-11-23T02:13:46;1.83;;;1.00;;
66478;SDS011;53294;47.912;13.526;2022-11-23T02:16:14;2.63;;;1.00;;
66478;SDS011;53294;47.912;13.526;2022-11-23T02:18:43;1.58;;;1.10;;
66478;SDS011;53294;47.912;13.526;2022-11-23T02:21:12;1.60;;;1.17;;
66478;SDS011;53294;47.912;13.526;2022-11-23T02:26:21;2.08;;;1.13;;
66478;SDS011;53294;47.912;13.526;2022-11-23T02:31:29;1.38;;;0.90;;
66478;SDS011;53294;47.912;13.526;2022-11-23T02:33:56;1.15;;;0.93;;
66478;SDS011;53294;47.912;13.526;2022-11-23T02:39:12;1.15;;;1.00;;
66478;SDS011;53294;47.912;13.526;2022-11-23T02:41:46;1.83;;;1.17;;
66478;SDS011;53294;47.912;13.526;2022-11-23T02:46:44;2.28;;;1.27;;
66478;SDS011;53294;47.912;13.526;2022-11-23T02:49:11;2.20;;;1.17;;
66478;SDS011;53294;47.912;13.526;2022-11-23T02:51:38;1.30;;;0.85;;
66478;SDS011;53294;47.912;13.526;2022-11-23T02:54:04;2.13;;;1.40;;
66478;SDS011;53294;47.912;13.526;2022-11-23T02:56:31;1.83;;;1.00;;
66478;SDS011;53294;47.912;13.526;2022-11-23T02:58:58;1.45;;;1.10;;
66478;SDS011;53294;47.912;13.526;2022-11-23T03:01:24;1.70;;;0.95;;
66478;SDS011;53294;47.912;13.526;2022-11-23T03:03:52;1.55;;;1.00;;
66478;SDS011;53294;47.912;13.526;2022-11-23T03:06:18;3.17;;;0.82;;
66478;SDS011;53294;47.912;13.526;2022-11-23T03:08:45;2.33;;;0.90;;
66478;SDS011;53294;47.912;13.526;2022-11-23T03:11:12;1.67;;;1.02;;
66478;SDS011;53294;47.912;13.526;2022-11-23T03:13:38;1.40;;;0.88;;
66478;SDS011;53294;47.912;13.526;2022-11-23T03:16:05;1.65;;;0.90;;
66478;SDS011;53294;47.912;13.526;2022-11-23T03:18:32;1.10;;;1.00;;
66478;SDS011;53294;47.912;13.526;2022-11-23T03:21:02;1.15;;;1.00;;
66478;SDS011;53294;47.912;13.526;2022-11-23T03:23:30;2.05;;;1.20;;
66478;SDS011;53294;47.912;13.526;2022-11-23T03:25:57;2.40;;;1.10;;
66478;SDS011;53294;47.912;13.526;2022-11-23T03:28:24;1.10;;;1.00;;
66478;SDS011;53294;47.912;13.526;2022-11-23T03:30:51;2.70;;;1.00;;
66478;SDS011;53294;47.912;13.526;2022-11-23T03:33:17;3.35;;;1.13;;
66478;SDS011;53294;47.912;13.526;2022-11-23T03:35:45;1.77;;;1.10;;
66478;SDS011;53294;47.912;13.526;2022-11-23T03:38:12;1.98;;;0.95;;
66478;SDS011;53294;47.912;13.526;2022-11-23T03:40:38;1.45;;;1.00;;
66478;SDS011;53294;47.912;13.526;2022-11-23T03:43:05;3.20;;;1.23;;
66478;SDS011;53294;47.912;13.526;2022-11-23T03:45:32;1.00;;;0.90;;
66478;SDS011;53294;47.912;13.526;2022-11-23T03:47:59;2.28;;;1.00;;
66478;SDS011;53294;47.912;13.526;2022-11-23T03:50:25;1.13;;;0.65;;
66478;SDS011;53294;47.912;13.526;2022-11-23T03:52:55;1.45;;;1.00;;
66478;SDS011;53294;47.912;13.526;2022-11-23T03:55:21;1.77;;;0.90;;
66478;SDS011;53294;47.912;13.526;2022-11-23T03:57:48;0.70;;;0.63;;
66478;SDS011;53294;47.912;13.526;2022-11-23T04:00:15;1.35;;;0.93;;
66478;SDS011;53294;47.912;13.526;2022-11-23T04:02:42;1.83;;;1.00;;
66478;SDS011;53294;47.912;13.526;2022-11-23T04:05:09;1.00;;;0.95;;
66478;SDS011;53294;47.912;13.526;2022-11-23T04:07:35;1.92;;;0.93;;
66478;SDS011;53294;47.912;13.526;2022-11-23T04:10:02;1.63;;;1.00;;
66478;SDS011;53294;47.912;13.526;2022-11-23T04:12:29;1.35;;;0.82;;
66478;SDS011;53294;47.912;13.526;2022-11-23T04:14:56;0.95;;;0.95;;
66478;SDS011;53294;47.912;13.526;2022-11-23T04:17:22;2.78;;;1.10;;
66478;SDS011;53294;47.912;13.526;2022-11-23T04:19:49;1.13;;;0.82;;
66478;SDS011;53294;47.912;13.526;2022-11-23T04:22:15;1.02;;;0.88;;
66478;SDS011;53294;47.912;13.526;2022-11-23T04:24:42;1.42;;;0.90;;
66478;SDS011;53294;47.912;13.526;2022-11-23T04:27:09;1.67;;;1.13;;
66478;SDS011;53294;47.912;13.526;2022-11-23T04:29:35;2.13;;;1.50;;
66478;SDS011;53294;47.912;13.526;2022-11-23T04:32:02;2.58;;;1.60;;
66478;SDS011;53294;47.912;13.526;2022-11-23T04:34:29;2.08;;;1.42;;
66478;SDS011;53294;47.912;13.526;2022-11-23T04:36:55;1.70;;;1.00;;
66478;SDS011;53294;47.912;13.526;2022-11-23T04:39:22;1.75;;;1.25;;
66478;SDS011;53294;47.912;13.526;2022-11-23T04:41:49;1.65;;;0.90;;
66478;SDS011;53294;47.912;13.526;2022-11-23T04:44:15;1.65;;;1.08;;
66478;SDS011;53294;47.912;13.526;2022-11-23T04:46:42;2.17;;;1.42;;
66478;SDS011;53294;47.912;13.526;2022-11-23T04:49:09;1.42;;;0.98;;
66478;SDS011;53294;47.912;13.526;2022-11-23T04:51:35;1.65;;;1.10;;
66478;SDS011;53294;47.912;13.526;2022-11-23T04:54:02;2.08;;;1.20;;
66478;SDS011;53294;47.912;13.526;2022-11-23T04:56:29;2.30;;;1.27;;
66478;SDS011;53294;47.912;13.526;2022-11-23T04:58:55;2.45;;;1.30;;
66478;SDS011;53294;47.912;13.526;2022-11-23T05:01:22;1.88;;;1.52;;
66478;SDS011;53294;47.912;13.526;2022-11-23T05:03:49;1.98;;;1.60;;
66478;SDS011;53294;47.912;13.526;2022-11-23T05:06:15;1.20;;;1.10;;
66478;SDS011;53294;47.912;13.526;2022-11-23T05:08:42;1.80;;;1.40;;
66478;SDS011;53294;47.912;13.526;2022-11-23T05:11:09;4.07;;;1.58;;
66478;SDS011;53294;47.912;13.526;2022-11-23T05:13:35;2.70;;;1.70;;
66478;SDS011;53294;47.912;13.526;2022-11-23T05:16:02;1.92;;;1.50;;
66478;SDS011;53294;47.912;13.526;2022-11-23T05:18:28;1.30;;;1.20;;
66478;SDS011;53294;47.912;13.526;2022-11-23T05:20:55;1.17;;;1.08;;
66478;SDS011;53294;47.912;13.526;2022-11-23T05:23:22;1.13;;;1.05;;
66478;SDS011;53294;47.912;13.526;2022-11-23T05:25:48;1.88;;;1.15;;
66478;SDS011;53294;47.912;13.526;2022-11-23T05:28:16;1.58;;;1.00;;
66478;SDS011;53294;47.912;13.526;2022-11-23T05:31:04;2.03;;;1.17;;
66478;SDS011;53294;47.912;13.526;2022-11-23T05:33:31;1.85;;;1.13;;
66478;SDS011;53294;47.912;13.526;2022-11-23T05:35:58;2.40;;;1.25;;
66478;SDS011;53294;47.912;13.526;2022-11-23T05:38:24;1.85;;;1.20;;
66478;SDS011;53294;47.912;13.526;2022-11-23T05:40:51;1.85;;;1.20;;
66478;SDS011;53294;47.912;13.526;2022-11-23T05:43:17;1.35;;;0.93;;
66478;SDS011;53294;47.912;13.526;2022-11-23T05:45:44;2.50;;;1.40;;
66478;SDS011;53294;47.912;13.526;2022-11-23T05:48:11;2.53;;;1.40;;
66478;SDS011;53294;47.912;13.526;2022-11-23T05:50:37;2.95;;;1.58;;
66478;SDS011;53294;47.912;13.526;2022-11-23T05:53:04;1.45;;;1.30;;
66478;SDS011;53294;47.912;13.526;2022-11-23T05:55:31;2.03;;;1.00;;
66478;SDS011;53294;47.912;13.526;2022-11-23T05:57:57;2.00;;;1.20;;
66478;SDS011;53294;47.912;13.526;2022-11-23T06:00:24;1.80;;;1.25;;
66478;SDS011;53294;47.912;13.526;2022-11-23T06:02:50;1.77;;;1.17;;
66478;SDS011;53294;47.912;13.526;2022-11-23T06:05:17;3.60;;;1.63;;
66478;SDS011;53294;47.912;13.526;2022-11-23T06:07:44;2.45;;;1.25;;
66478;SDS011;53294;47.912;13.526;2022-11-23T06:10:11;3.63;;;1.40;;
66478;SDS011;53294;47.912;13.526;2022-11-23T06:12:37;2.00;;;1.40;;
66478;SDS011;53294;47.912;13.526;2022-11-23T06:15:04;2.20;;;1.40;;
66478;SDS011;53294;47.912;13.526;2022-11-23T06:17:31;1.45;;;1.30;;
66478;SDS011;53294;47.912;13.526;2022-11-23T06:19:58;2.13;;;1.55;;
66478;SDS011;53294;47.912;13.526;2022-11-23T06:22:25;1.80;;;1.38;;
66478;SDS011;53294;47.912;13.526;2022-11-23T06:24:51;1.30;;;1.17;;
66478;SDS011;53294;47.912;13.526;2022-11-23T06:27:18;2.30;;;1.35;;
66478;SDS011;53294;47.912;13.526;2022-11-23T06:29:44;2.83;;;1.30;;
66478;SDS011;53294;47.912;13.526;2022-11-23T06:32:12;1.77;;;1.25;;
66478;SDS011;53294;47.912;13.526;2022-11-23T06:34:40;1.70;;;1.48;;
66478;SDS011;53294;47.912;13.526;2022-11-23T06:37:07;3.20;;;1.52;;
66478;SDS011;53294;47.912;13.526;2022-11-23T06:39:33;2.17;;;1.50;;
66478;SDS011;53294;47.912;13.526;2022-11-23T06:42:01;1.83;;;1.42;;
66478;SDS011;53294;47.912;13.526;2022-11-23T06:44:47;2.40;;;1.60;;
66478;SDS011;53294;47.912;13.526;2022-11-23T06:47:14;2.47;;;1.70;;
66478;SDS011;53294;47.912;13.526;2022-11-23T06:49:45;4.63;;;1.90;;
66478;SDS011;53294;47.912;13.526;2022-11-23T06:52:11;3.45;;;2.10;;
66478;SDS011;53294;47.912;13.526;2022-11-23T06:54:39;3.65;;;1.90;;
66478;SDS011;53294;47.912;13.526;2022-11-23T06:57:08;3.83;;;2.17;;
66478;SDS011;53294;47.912;13.526;2022-11-23T06:59:35;3.15;;;1.83;;
66478;SDS011;53294;47.912;13.526;2022-11-23T07:02:08;3.13;;;2.08;;
66478;SDS011;53294;47.912;13.526;2022-11-23T07:04:35;3.35;;;2.13;;
66478;SDS011;53294;47.912;13.526;2022-11-23T07:07:01;3.17;;;2.08;;
66478;SDS011;53294;47.912;13.526;2022-11-23T07:09:28;3.72;;;2.53;;
66478;SDS011;53294;47.912;13.526;2022-11-23T07:11:55;5.15;;;3.03;;
66478;SDS011;53294;47.912;13.526;2022-11-23T07:14:22;4.80;;;2.70;;
66478;SDS011;53294;47.912;13.526;2022-11-23T07:16:48;3.75;;;2.33;;
66478;SDS011;53294;47.912;13.526;2022-11-23T07:19:15;4.65;;;2.30;;
66478;SDS011;53294;47.912;13.526;2022-11-23T07:21:42;5.20;;;2.60;;
66478;SDS011;53294;47.912;13.526;2022-11-23T07:24:10;4.10;;;2.72;;
66478;SDS011;53294;47.912;13.526;2022-11-23T07:26:37;4.70;;;2.47;;
66478;SDS011;53294;47.912;13.526;2022-11-23T07:29:03;3.28;;;2.28;;
66478;SDS011;53294;47.912;13.526;2022-11-23T07:31:30;4.45;;;2.47;;
66478;SDS011;53294;47.912;13.526;2022-11-23T07:33:57;4.30;;;2.72;;
66478;SDS011;53294;47.912;13.526;2022-11-23T07:36:23;4.28;;;2.83;;
66478;SDS011;53294;47.912;13.526;2022-11-23T07:38:50;4.00;;;2.35;;
66478;SDS011;53294;47.912;13.526;2022-11-23T07:41:17;4.90;;;2.50;;
66478;SDS011;53294;47.912;13.526;2022-11-23T07:43:43;4.70;;;2.63;;
66478;SDS011;53294;47.912;13.526;2022-11-23T07:46:10;4.18;;;2.65;;
66478;SDS011;53294;47.912;13.526;2022-11-23T07:48:36;3.85;;;2.55;;
66478;SDS011;53294;47.912;13.526;2022-11-23T07:51:03;5.00;;;2.90;;
66478;SDS011;53294;47.912;13.526;2022-11-23T07:53:30;4.30;;;2.83;;
66478;SDS011;53294;47.912;13.526;2022-11-23T07:55:56;3.80;;;2.42;;
66478;SDS011;53294;47.912;13.526;2022-11-23T07:58:24;2.97;;;2.00;;
66478;SDS011;53294;47.912;13.526;2022-11-23T08:00:51;4.88;;;2.75;;
66478;SDS011;53294;47.912;13.526;2022-11-23T08:03:18;3.75;;;2.40;;
66478;SDS011;53294;47.912;13.526;2022-11-23T08:05:53;4.97;;;2.55;;
66478;SDS011;53294;47.912;13.526;2022-11-23T08:08:20;6.05;;;3.15;;
66478;SDS011;53294;47.912;13.526;2022-11-23T08:10:46;5.15;;;3.03;;
66478;SDS011;53294;47.912;13.526;2022-11-23T08:13:18;3.63;;;2.40;;
66478;SDS011;53294;47.912;13.526;2022-11-23T08:15:45;4.43;;;2.75;;
66478;SDS011;53294;47.912;13.526;2022-11-23T08:18:19;4.80;;;2.70;;
66478;SDS011;53294;47.912;13.526;2022-11-23T08:20:46;6.60;;;4.70;;
66478;SDS011;53294;47.912;13.526;2022-11-23T08:23:12;6.47;;;4.78;;
66478;SDS011;53294;47.912;13.526;2022-11-23T08:25:39;4.57;;;2.97;;
66478;SDS011;53294;47.912;13.526;2022-11-23T08:28:05;4.38;;;2.83;;
66478;SDS011;53294;47.912;13.526;2022-11-23T08:30:32;4.13;;;2.72;;
66478;SDS011;53294;47.912;13.526;2022-11-23T08:33:03;3.63;;;2.65;;
66478;SDS011;53294;47.912;13.526;2022-11-23T08:35:36;4.05;;;3.10;;
66478;SDS011;53294;47.912;13.526;2022-11-23T08:38:05;4.85;;;3.50;;
66478;SDS011;53294;47.912;13.526;2022-11-23T08:40:34;4.68;;;2.72;;
66478;SDS011;53294;47.912;13.526;2022-11-23T08:43:01;4.78;;;3.35;;
66478;SDS011;53294;47.912;13.526;2022-11-23T08:45:28;5.22;;;2.80;;
66478;SDS011;53294;47.912;13.526;2022-11-23T08:48:02;4.47;;;3.42;;
66478;SDS011;53294;47.912;13.526;2022-11-23T08:50:29;4.35;;;3.00;;
66478;SDS011;53294;47.912;13.526;2022-11-23T08:52:59;3.88;;;2.97;;
66478;SDS011;53294;47.912;13.526;2022-11-23T08:55:26;4.25;;;2.63;;
66478;SDS011;53294;47.912;13.526;2022-11-23T08:57:55;4.63;;;3.33;;
66478;SDS011;53294;47.912;13.526;2022-11-23T09:00:25;3.70;;;2.83;;
66478;SDS011;53294;47.912;13.526;2022-11-23T09:02:53;4.18;;;2.92;;
66478;SDS011;53294;47.912;13.526;2022-11-23T09:05:19;4.93;;;3.50;;
66478;SDS011;53294;47.912;13.526;2022-11-23T09:07:47;6.07;;;4.68;;
66478;SDS011;53294;47.912;13.526;2022-11-23T09:10:14;5.20;;;3.88;;
66478;SDS011;53294;47.912;13.526;2022-11-23T09:12:44;5.97;;;3.25;;
66478;SDS011;53294;47.912;13.526;2022-11-23T09:15:11;5.47;;;3.30;;
66478;SDS011;53294;47.912;13.526;2022-11-23T09:17:38;4.95;;;3.22;;
66478;SDS011;53294;47.912;13.526;2022-11-23T09:20:05;5.05;;;3.22;;
66478;SDS011;53294;47.912;13.526;2022-11-23T09:22:32;5.18;;;3.65;;
66478;SDS011;53294;47.912;13.526;2022-11-23T09:24:59;5.88;;;3.97;;
66478;SDS011;53294;47.912;13.526;2022-11-23T09:27:26;5.18;;;3.38;;
66478;SDS011;53294;47.912;13.526;2022-11-23T09:29:53;4.75;;;3.30;;
66478;SDS011;53294;47.912;13.526;2022-11-23T09:32:19;5.82;;;3.30;;
66478;SDS011;53294;47.912;13.526;2022-11-23T09:34:46;4.57;;;3.28;;
66478;SDS011;53294;47.912;13.526;2022-11-23T09:37:13;5.65;;;3.40;;
66478;SDS011;53294;47.912;13.526;2022-11-23T09:39:40;5.75;;;3.58;;
66478;SDS011;53294;47.912;13.526;2022-11-23T09:47:30;10.07;;;9.18;;
66478;SDS011;53294;47.912;13.526;2022-11-23T09:52:31;5.05;;;3.17;;
66478;SDS011;53294;47.912;13.526;2022-11-23T09:55:02;5.68;;;3.80;;
66478;SDS011;53294;47.912;13.526;2022-11-23T09:57:35;5.35;;;2.97;;
66478;SDS011;53294;47.912;13.526;2022-11-23T10:00:07;4.28;;;3.28;;
66478;SDS011;53294;47.912;13.526;2022-11-23T10:02:44;4.45;;;2.70;;
66478;SDS011;53294;47.912;13.526;2022-11-23T10:05:15;4.43;;;2.92;;
66478;SDS011;53294;47.912;13.526;2022-11-23T10:10:36;4.28;;;2.80;;
66478;SDS011;53294;47.912;13.526;2022-11-23T10:19:08;3.83;;;2.50;;
66478;SDS011;53294;47.912;13.526;2022-11-23T10:24:19;4.68;;;2.97;;
66478;SDS011;53294;47.912;13.526;2022-11-23T10:26:53;5.13;;;2.90;;
66478;SDS011;53294;47.912;13.526;2022-11-23T10:29:34;5.03;;;2.83;;
66478;SDS011;53294;47.912;13.526;2022-11-23T10:32:04;4.13;;;2.28;;
66478;SDS011;53294;47.912;13.526;2022-11-23T10:37:14;4.47;;;2.63;;
66478;SDS011;53294;47.912;13.526;2022-11-23T10:39:42;4.35;;;2.70;;
66478;SDS011;53294;47.912;13.526;2022-11-23T10:42:28;4.60;;;2.47;;
66478;SDS011;53294;47.912;13.526;2022-11-23T10:44:59;4.65;;;3.13;;
66478;SDS011;53294;47.912;13.526;2022-11-23T10:53:21;4.25;;;2.53;;
66478;SDS011;53294;47.912;13.526;2022-11-23T10:55:51;3.92;;;2.38;;
66478;SDS011;53294;47.912;13.526;2022-11-23T10:58:26;4.72;;;2.30;;
66478;SDS011;53294;47.912;13.526;2022-11-23T11:00:59;4.32;;;2.78;;
66478;SDS011;53294;47.912;13.526;2022-11-23T11:03:29;4.30;;;2.50;;
66478;SDS011;53294;47.912;13.526;2022-11-23T11:05:58;4.85;;;2.60;;
66478;SDS011;53294;47.912;13.526;2022-11-23T11:08:52;3.33;;;2.20;;
66478;SDS011;53294;47.912;13.526;2022-11-23T11:11:27;3.35;;;2.38;;
66478;SDS011;53294;47.912;13.526;2022-11-23T11:14:04;3.95;;;2.42;;
66478;SDS011;53294;47.912;13.526;2022-11-23T11:16:32;4.57;;;2.35;;
66478;SDS011;53294;47.912;13.526;2022-11-23T11:19:20;3.30;;;2.08;;
66478;SDS011;53294;47.912;13.526;2022-11-23T11:22:45;4.35;;;2.47;;
66478;SDS011;53294;47.912;13.526;2022-11-23T11:24:54;3.15;;;2.05;;
66478;SDS011;53294;47.912;13.526;2022-11-23T11:27:22;3.35;;;2.10;;
66478;SDS011;53294;47.912;13.526;2022-11-23T11:29:50;4.30;;;2.50;;
66478;SDS011;53294;47.912;13.526;2022-11-23T11:32:35;4.07;;;2.53;;
66478;SDS011;53294;47.912;13.526;2022-11-23T11:37:46;3.75;;;2.45;;
66478;SDS011;53294;47.912;13.526;2022-11-23T11:45:42;3.22;;;2.15;;
66478;SDS011;53294;47.912;13.526;2022-11-23T11:48:47;3.20;;;2.00;;
66478;SDS011;53294;47.912;13.526;2022-11-23T11:57:25;3.42;;;2.28;;
66478;SDS011;53294;47.912;13.526;2022-11-23T11:59:56;3.85;;;2.35;;
66478;SDS011;53294;47.912;13.526;2022-11-23T12:05:29;4.03;;;2.45;;
66478;SDS011;53294;47.912;13.526;2022-11-23T12:08:10;4.65;;;2.85;;
66478;SDS011;53294;47.912;13.526;2022-11-23T12:10:56;4.35;;;2.78;;
66478;SDS011;53294;47.912;13.526;2022-11-23T12:15:57;4.10;;;2.17;;
66478;SDS011;53294;47.912;13.526;2022-11-23T12:21:03;3.65;;;2.17;;
66478;SDS011;53294;47.912;13.526;2022-11-23T12:26:28;3.70;;;2.28;;
66478;SDS011;53294;47.912;13.526;2022-11-23T12:32:22;3.92;;;2.35;;
66478;SDS011;53294;47.912;13.526;2022-11-23T12:35:35;3.70;;;2.45;;
66478;SDS011;53294;47.912;13.526;2022-11-23T12:45:51;4.05;;;2.10;;
66478;SDS011;53294;47.912;13.526;2022-11-23T12:51:17;4.03;;;1.80;;
66478;SDS011;53294;47.912;13.526;2022-11-23T12:59:19;6.25;;;2.25;;
66478;SDS011;53294;47.912;13.526;2022-11-23T13:01:50;3.72;;;2.40;;
66478;SDS011;53294;47.912;13.526;2022-11-23T13:12:48;5.53;;;2.60;;
66478;SDS011;53294;47.912;13.526;2022-11-23T13:21:43;4.55;;;2.53;;
66478;SDS011;53294;47.912;13.526;2022-11-23T13:24:25;4.75;;;2.65;;
66478;SDS011;53294;47.912;13.526;2022-11-23T13:35:03;4.57;;;2.60;;
66478;SDS011;53294;47.912;13.526;2022-11-23T13:42:53;4.75;;;2.67;;
66478;SDS011;53294;47.912;13.526;2022-11-23T13:45:31;5.15;;;2.92;;
66478;SDS011;53294;47.912;13.526;2022-11-23T13:50:35;2.90;;;2.20;;
66478;SDS011;53294;47.912;13.526;2022-11-23T13:53:04;3.30;;;2.00;;
66478;SDS011;53294;47.912;13.526;2022-11-23T13:55:44;3.75;;;2.05;;
66478;SDS011;53294;47.912;13.526;2022-11-23T14:08:59;3.50;;;1.80;;
66478;SDS011;53294;47.912;13.526;2022-11-23T14:11:32;3.40;;;2.00;;
66478;SDS011;53294;47.912;13.526;2022-11-23T14:14:08;4.18;;;2.00;;
66478;SDS011;53294;47.912;13.526;2022-11-23T14:19:53;3.05;;;1.90;;
66478;SDS011;53294;47.912;13.526;2022-11-23T14:40:04;4.60;;;2.78;;
66478;SDS011;53294;47.912;13.526;2022-11-23T14:42:40;3.50;;;2.38;;
66478;SDS011;53294;47.912;13.526;2022-11-23T14:45:13;3.40;;;1.80;;
66478;SDS011;53294;47.912;13.526;2022-11-23T14:47:40;3.13;;;1.73;;
66478;SDS011;53294;47.912;13.526;2022-11-23T14:50:23;2.75;;;1.95;;
66478;SDS011;53294;47.912;13.526;2022-11-23T14:52:55;2.78;;;1.75;;
66478;SDS011;53294;47.912;13.526;2022-11-23T14:55:24;3.17;;;1.90;;
66478;SDS011;53294;47.912;13.526;2022-11-23T14:57:54;2.63;;;1.83;;
66478;SDS011;53294;47.912;13.526;2022-11-23T15:00:38;3.88;;;2.53;;
66478;SDS011;53294;47.912;13.526;2022-11-23T15:03:12;13.75;;;12.55;;
66478;SDS011;53294;47.912;13.526;2022-11-23T15:06:12;4.32;;;3.88;;
66478;SDS011;53294;47.912;13.526;2022-11-23T15:11:40;13.07;;;12.07;;
66478;SDS011;53294;47.912;13.526;2022-11-23T15:14:24;25.33;;;23.52;;
66478;SDS011;53294;47.912;13.526;2022-11-23T15:16:51;10.80;;;9.90;;
66478;SDS011;53294;47.912;13.526;2022-11-23T15:19:25;4.90;;;3.92;;
66478;SDS011;53294;47.912;13.526;2022-11-23T15:21:54;4.50;;;2.50;;
66478;SDS011;53294;47.912;13.526;2022-11-23T15:24:22;5.60;;;4.40;;
66478;SDS011;53294;47.912;13.526;2022-11-23T15:26:51;4.43;;;3.05;;
66478;SDS011;53294;47.912;13.526;2022-11-23T15:31:59;4.47;;;2.40;;
66478;SDS011;53294;47.912;13.526;2022-11-23T15:34:46;4.85;;;2.65;;
66478;SDS011;53294;47.912;13.526;2022-11-23T15:37:15;5.53;;;2.85;;
66478;SDS011;53294;47.912;13.526;2022-11-23T15:39:42;4.82;;;2.83;;
66478;SDS011;53294;47.912;13.526;2022-11-23T15:42:12;5.40;;;3.35;;
66478;SDS011;53294;47.912;13.526;2022-11-23T15:44:42;6.28;;;4.32;;
66478;SDS011;53294;47.912;13.526;2022-11-23T15:47:18;7.53;;;4.97;;
66478;SDS011;53294;47.912;13.526;2022-11-23T15:49:59;16.52;;;9.73;;
66478;SDS011;53294;47.912;13.526;2022-11-23T15:52:29;12.38;;;6.75;;
66478;SDS011;53294;47.912;13.526;2022-11-23T15:55:07;9.10;;;4.32;;
66478;SDS011;53294;47.912;13.526;2022-11-23T15:57:39;7.63;;;5.20;;
66478;SDS011;53294;47.912;13.526;2022-11-23T16:00:17;7.60;;;4.70;;
66478;SDS011;53294;47.912;13.526;2022-11-23T16:02:48;5.03;;;3.50;;
66478;SDS011;53294;47.912;13.526;2022-11-23T16:05:19;6.75;;;3.30;;
66478;SDS011;53294;47.912;13.526;2022-11-23T16:07:51;5.68;;;3.80;;
66478;SDS011;53294;47.912;13.526;2022-11-23T16:10:28;5.75;;;3.55;;
66478;SDS011;53294;47.912;13.526;2022-11-23T16:12:57;5.63;;;3.20;;
66478;SDS011;53294;47.912;13.526;2022-11-23T16:17:58;5.90;;;3.58;;
66478;SDS011;53294;47.912;13.526;2022-11-23T16:20:26;5.13;;;2.92;;
66478;SDS011;53294;47.912;13.526;2022-11-23T16:22:53;12.70;;;11.55;;
66478;SDS011;53294;47.912;13.526;2022-11-23T16:28:02;10.38;;;9.35;;
66478;SDS011;53294;47.912;13.526;2022-11-23T16:30:37;7.70;;;5.63;;
66478;SDS011;53294;47.912;13.526;2022-11-23T16:33:11;8.77;;;7.90;;
66478;SDS011;53294;47.912;13.526;2022-11-23T16:35:40;13.40;;;12.27;;
66478;SDS011;53294;47.912;13.526;2022-11-23T16:38:07;7.95;;;6.22;;
66478;SDS011;53294;47.912;13.526;2022-11-23T16:40:33;34.92;;;32.58;;
66478;SDS011;53294;47.912;13.526;2022-11-23T16:43:00;8.20;;;7.40;;
66478;SDS011;53294;47.912;13.526;2022-11-23T16:45:29;5.28;;;3.63;;
66478;SDS011;53294;47.912;13.526;2022-11-23T16:50:29;9.40;;;6.85;;
66478;SDS011;53294;47.912;13.526;2022-11-23T16:53:01;7.03;;;5.32;;
66478;SDS011;53294;47.912;13.526;2022-11-23T16:55:38;15.52;;;14.23;;
66478;SDS011;53294;47.912;13.526;2022-11-23T16:58:09;10.32;;;9.43;;
66478;SDS011;53294;47.912;13.526;2022-11-23T17:00:40;8.25;;;7.45;;
66478;SDS011;53294;47.912;13.526;2022-11-23T17:03:14;5.88;;;4.68;;
66478;SDS011;53294;47.912;13.526;2022-11-23T17:05:42;20.27;;;11.38;;
66478;SDS011;53294;47.912;13.526;2022-11-23T17:08:09;34.67;;;27.63;;
66478;SDS011;53294;47.912;13.526;2022-11-23T17:10:36;19.17;;;13.07;;
66478;SDS011;53294;47.912;13.526;2022-11-23T17:13:05;10.73;;;6.35;;
66478;SDS011;53294;47.912;13.526;2022-11-23T17:15:37;45.65;;;40.88;;
66478;SDS011;53294;47.912;13.526;2022-11-23T17:18:08;18.90;;;16.92;;
66478;SDS011;53294;47.912;13.526;2022-11-23T17:20:39;31.50;;;28.70;;
66478;SDS011;53294;47.912;13.526;2022-11-23T17:23:06;13.55;;;11.85;;
66478;SDS011;53294;47.912;13.526;2022-11-23T17:25:33;11.15;;;7.90;;